METAR Data
IDs: Format: Raw Decoded Include TAF

Data at: 2223 UTC 01 Dec 2021

LEAL 012200Z 24003KT 210V280 CAVOK 13/05 Q1013 NOSIG